Time;durP1;ratioP1;P1;durP2;ratioP2;P2;SDS_P1;SDS_P2;PMS_P1;PMS_P2;Temp;Humidity;BMP_temperature;BMP_pressure;BME280_temperature;BME280_humidity;BME280_pressure;Samples;Min_cycle;Max_cycle;Signal;HPM_P1;HPM_P2
2022/03/21 00:01:20;;;;;;;10.80;4.72;;;3.40;99.90;;;;;;5078364;28;20263;-80
2022/03/21 00:03:46;;;;;;;8.88;4.57;;;3.40;99.90;;;;;;5076171;28;20484;-80
2022/03/21 00:06:12;;;;;;;11.00;4.72;;;3.30;99.90;;;;;;5075050;28;20025;-81
2022/03/21 00:08:38;;;;;;;9.85;5.15;;;3.30;99.90;;;;;;5075395;28;20533;-82
2022/03/21 00:11:03;;;;;;;14.48;5.00;;;3.30;99.90;;;;;;5071874;28;20024;-80
2022/03/21 00:13:29;;;;;;;7.50;4.50;;;3.30;99.90;;;;;;5051709;28;20103;-81
2022/03/21 00:15:56;;;;;;;11.50;4.60;;;3.30;99.90;;;;;;5051507;28;20082;-78
2022/03/21 00:18:23;;;;;;;13.45;5.72;;;3.30;99.90;;;;;;5075261;28;20028;-77
2022/03/21 00:20:54;;;;;;;11.52;5.25;;;3.30;99.90;;;;;;5068813;28;20022;-77
2022/03/21 00:23:22;;;;;;;9.82;5.10;;;3.30;99.90;;;;;;5067794;28;20044;-78
2022/03/21 00:25:48;;;;;;;11.05;4.90;;;3.20;99.90;;;;;;5054494;28;20111;-80
2022/03/21 00:28:14;;;;;;;10.02;4.50;;;3.20;99.90;;;;;;5068319;28;20020;-79
2022/03/21 00:30:42;;;;;;;9.27;4.18;;;3.20;99.90;;;;;;5050946;28;20092;-79
2022/03/21 00:33:08;;;;;;;10.48;5.03;;;3.20;99.90;;;;;;5079687;28;20035;-82
2022/03/21 00:35:35;;;;;;;9.88;4.38;;;3.20;99.90;;;;;;5062573;28;20036;-82
2022/03/21 00:38:01;;;;;;;8.75;4.05;;;3.20;99.90;;;;;;5053906;28;20134;-81
2022/03/21 00:40:29;;;;;;;8.88;4.97;;;3.10;99.90;;;;;;5080949;28;20027;-82
2022/03/21 00:42:56;;;;;;;7.45;4.32;;;3.00;99.90;;;;;;5046320;28;20032;-81
2022/03/21 00:45:27;;;;;;;10.25;4.80;;;2.90;99.90;;;;;;5048606;28;20089;-79
2022/03/21 00:47:54;;;;;;;8.02;3.83;;;2.90;99.90;;;;;;5031609;28;20470;-81
2022/03/21 00:50:22;;;;;;;12.20;4.80;;;3.00;99.90;;;;;;5027474;28;20029;-79
2022/03/21 00:52:53;;;;;;;8.82;4.57;;;3.10;99.90;;;;;;5045992;28;20055;-80
2022/03/21 00:55:22;;;;;;;15.25;4.28;;;3.00;99.90;;;;;;5048294;28;20420;-81
2022/03/21 00:57:48;;;;;;;9.15;4.35;;;2.90;99.90;;;;;;5048624;28;20025;-78
2022/03/21 01:00:17;;;;;;;7.45;4.32;;;2.70;99.90;;;;;;5045636;28;20531;-80
2022/03/21 01:02:43;;;;;;;7.53;4.57;;;2.60;99.90;;;;;;5031354;28;20123;-78
2022/03/21 01:05:10;;;;;;;10.40;4.18;;;2.60;99.90;;;;;;5047007;28;20021;-79
2022/03/21 01:07:37;;;;;;;7.05;4.28;;;2.60;99.90;;;;;;5046306;28;20143;-79
2022/03/21 01:10:04;;;;;;;9.25;4.35;;;2.60;99.90;;;;;;5046419;28;20101;-79
2022/03/21 01:12:31;;;;;;;7.57;3.55;;;2.60;99.90;;;;;;5047365;28;20495;-79
2022/03/21 01:14:56;;;;;;;6.88;4.50;;;2.60;99.90;;;;;;5059927;28;20020;-81
2022/03/21 01:17:22;;;;;;;8.45;4.43;;;2.70;99.90;;;;;;5051363;28;20021;-79
2022/03/21 01:19:48;;;;;;;10.32;4.47;;;2.70;99.90;;;;;;5048982;28;20090;-81
2022/03/21 01:22:14;;;;;;;9.75;5.32;;;2.70;99.90;;;;;;5046248;28;20090;-80
2022/03/21 01:24:40;;;;;;;8.98;3.80;;;2.70;99.90;;;;;;5049274;28;20032;-82
2022/03/21 01:27:06;;;;;;;11.73;5.13;;;2.60;99.90;;;;;;5052577;28;20028;-79
2022/03/21 01:29:34;;;;;;;7.38;4.40;;;2.60;99.90;;;;;;5047738;28;20098;-77
2022/03/21 01:32:00;;;;;;;12.23;4.13;;;2.60;99.90;;;;;;5046965;28;20045;-79
2022/03/21 01:34:26;;;;;;;12.82;4.95;;;2.60;99.90;;;;;;5046883;28;20037;-78
2022/03/21 01:36:51;;;;;;;9.15;4.68;;;2.60;99.90;;;;;;5047409;28;20477;-79
2022/03/21 01:39:17;;;;;;;9.68;5.28;;;2.60;99.90;;;;;;5046399;28;20025;-79
2022/03/21 01:41:43;;;;;;;7.88;4.35;;;2.70;99.90;;;;;;5061328;28;20033;-79
2022/03/21 01:44:10;;;;;;;8.52;4.10;;;2.80;99.90;;;;;;5066293;28;20020;-78
2022/03/21 01:46:37;;;;;;;12.13;4.38;;;2.90;99.90;;;;;;5049869;28;20060;-78
2022/03/21 01:49:05;;;;;;;11.07;4.28;;;2.80;99.90;;;;;;5048390;28;20073;-78
2022/03/21 01:51:32;;;;;;;14.32;5.10;;;2.70;99.90;;;;;;5067376;28;20080;-78
2022/03/21 01:56:45;;;;;;;8.18;4.22;;;2.60;99.90;;;;;;5074365;28;20078;-78
2022/03/21 01:59:12;;;;;;;9.98;4.55;;;2.60;99.90;;;;;;5072562;28;20085;-78
2022/03/21 02:01:39;;;;;;;7.25;4.35;;;2.70;99.90;;;;;;5055979;28;20417;-78
2022/03/21 02:04:05;;;;;;;6.85;3.75;;;2.50;99.90;;;;;;5074241;28;20032;-78
2022/03/21 02:06:31;;;;;;;7.57;4.22;;;2.40;99.90;;;;;;5073806;28;20026;-78
2022/03/21 02:08:59;;;;;;;9.43;4.78;;;2.30;99.90;;;;;;5055748;28;20105;-78
2022/03/21 02:11:25;;;;;;;4.57;3.42;;;2.30;99.90;;;;;;5073359;28;20319;-78
2022/03/21 02:13:54;;;;;;;9.82;4.00;;;2.20;99.90;;;;;;5074440;28;20036;-78
2022/03/21 02:16:20;;;;;;;10.85;3.83;;;3.60;99.90;;;;;;5074385;28;20049;-78
2022/03/21 02:18:47;;;;;;;9.55;3.70;;;2.10;99.90;;;;;;5074160;28;20028;-78
2022/03/21 02:21:48;;;;;;;7.13;5.15;;;2.00;99.90;;;;;;5074247;28;20017;-78
2022/03/21 02:24:41;;;;;;;6.95;3.83;;;2.00;99.90;;;;;;5028630;28;20039;-77
2022/03/21 02:27:09;;;;;;;8.90;4.13;;;1.90;99.90;;;;;;5072710;28;20048;-78
2022/03/21 02:29:37;;;;;;;8.60;4.50;;;1.80;99.90;;;;;;5074277;28;20060;-77
2022/03/21 02:32:05;;;;;;;7.57;5.07;;;1.80;99.90;;;;;;5074205;28;20118;-78
2022/03/21 02:34:36;;;;;;;7.72;4.53;;;1.80;99.90;;;;;;5055966;28;20025;-78
2022/03/21 02:37:03;;;;;;;7.07;4.07;;;1.90;99.90;;;;;;5054666;28;20028;-78
2022/03/21 02:39:29;;;;;;;10.55;4.18;;;2.00;99.90;;;;;;5072912;28;20020;-79
2022/03/21 02:41:56;;;;;;;11.15;4.35;;;2.00;99.90;;;;;;5082167;28;20025;-78
2022/03/21 02:44:22;;;;;;;10.30;4.57;;;1.90;99.90;;;;;;5063977;28;20039;-78
2022/03/21 02:46:48;;;;;;;9.00;4.25;;;1.80;99.90;;;;;;5072379;28;20025;-78
2022/03/21 02:49:15;;;;;;;10.05;4.65;;;1.70;99.90;;;;;;5070804;28;20040;-78
2022/03/21 02:51:42;;;;;;;9.88;4.20;;;1.60;99.90;;;;;;5070523;28;20036;-78
2022/03/21 02:54:09;;;;;;;8.27;4.57;;;1.60;99.90;;;;;;5053187;28;20056;-77
2022/03/21 02:56:35;;;;;;;8.48;4.25;;;1.60;99.90;;;;;;5053142;28;20016;-78
2022/03/21 02:59:00;;;;;;;10.40;4.10;;;1.60;99.90;;;;;;5071091;28;20035;-78
2022/03/21 03:01:26;;;;;;;11.60;4.28;;;1.60;99.90;;;;;;5052614;28;20024;-77
2022/03/21 03:03:53;;;;;;;8.77;4.88;;;1.60;99.90;;;;;;5071226;28;20084;-78
2022/03/21 03:06:18;;;;;;;10.68;4.57;;;1.50;99.90;;;;;;5053621;28;20048;-77
2022/03/21 03:08:44;;;;;;;9.48;4.18;;;1.40;99.90;;;;;;5070674;28;20491;-78
2022/03/21 03:11:11;;;;;;;9.77;4.38;;;1.30;99.90;;;;;;5052637;28;20021;-78
2022/03/21 03:13:37;;;;;;;11.45;4.20;;;1.30;99.90;;;;;;5070290;28;20028;-78
2022/03/21 03:16:03;;;;;;;8.27;4.10;;;1.20;99.90;;;;;;5052489;28;20025;-77
2022/03/21 03:18:29;;;;;;;8.73;3.80;;;1.10;99.90;;;;;;5070522;28;20026;-78
2022/03/21 03:20:57;;;;;;;11.90;5.07;;;1.20;99.90;;;;;;5070852;28;20110;-78
2022/03/21 03:23:24;;;;;;;12.75;4.93;;;1.20;99.90;;;;;;5071430;28;20044;-77
2022/03/21 03:25:58;;;;;;;8.43;4.20;;;1.20;99.90;;;;;;5072192;28;20056;-78
2022/03/21 03:28:24;;;;;;;8.20;4.30;;;1.20;99.90;;;;;;5071768;28;20411;-77
2022/03/21 03:30:50;;;;;;;10.15;4.35;;;1.30;99.90;;;;;;5053639;28;20059;-77
2022/03/21 03:33:16;;;;;;;12.00;4.90;;;1.20;99.90;;;;;;5071621;28;20131;-78
2022/03/21 03:35:42;;;;;;;12.43;4.60;;;1.20;99.90;;;;;;5071600;28;20135;-78
2022/03/21 03:38:08;;;;;;;8.38;4.65;;;1.30;99.90;;;;;;5053474;28;20686;-78
2022/03/21 03:40:33;;;;;;;8.30;4.57;;;1.30;99.90;;;;;;5071785;28;20067;-78
2022/03/21 03:42:59;;;;;;;8.52;4.25;;;1.30;99.90;;;;;;5053422;28;20060;-78
2022/03/21 03:45:25;;;;;;;10.90;4.70;;;1.30;99.90;;;;;;5070242;28;20436;-78
2022/03/21 03:47:52;;;;;;;10.75;5.72;;;1.30;99.90;;;;;;5054301;28;20024;-78
2022/03/21 03:50:18;;;;;;;10.60;4.60;;;1.40;99.90;;;;;;5071756;28;20073;-79
2022/03/21 03:52:48;;;;;;;12.70;5.03;;;1.40;99.90;;;;;;5071433;28;20828;-78
2022/03/21 03:55:14;;;;;;;;;;;1.30;99.90;;;;;;5054047;28;20024;-78
2022/03/21 03:57:40;;;;;;;13.00;5.03;;;1.20;99.90;;;;;;5054309;28;19915;-79
2022/03/21 04:00:07;;;;;;;11.35;5.47;;;1.20;99.90;;;;;;5072099;28;20054;-77
2022/03/21 04:03:44;;;;;;;8.25;4.43;;;1.40;99.90;;;;;;5072066;28;20504;-78
2022/03/21 04:05:21;;;;;;;9.70;5.00;;;1.30;99.90;;;;;;5071701;28;20052;-78
2022/03/21 04:07:47;;;;;;;9.02;4.47;;;1.20;99.90;;;;;;5070988;28;20039;-78
2022/03/21 04:10:13;;;;;;;12.07;6.45;;;1.10;99.90;;;;;;5072282;28;20066;-78
2022/03/21 04:12:38;;;;;;;8.25;4.57;;;1.00;99.90;;;;;;5072298;28;20037;-78
2022/03/21 04:15:07;;;;;;;12.75;5.50;;;1.00;99.90;;;;;;5071726;28;20094;-78
2022/03/21 04:17:35;;;;;;;9.30;4.90;;;0.90;99.90;;;;;;5054701;28;20020;-78
2022/03/21 04:20:02;;;;;;;12.80;5.38;;;0.90;99.90;;;;;;5072227;28;20328;-78
2022/03/21 04:22:28;;;;;;;15.30;5.72;;;0.90;99.90;;;;;;5071593;28;20032;-80
2022/03/21 04:24:54;;;;;;;8.93;4.75;;;0.90;99.90;;;;;;5053816;28;20381;-78
2022/03/21 04:27:20;;;;;;;10.43;4.43;;;0.80;99.90;;;;;;5071983;28;20032;-79
2022/03/21 04:29:45;;;;;;;9.98;4.70;;;0.80;99.90;;;;;;5072933;28;20511;-78
2022/03/21 04:32:11;;;;;;;10.55;5.07;;;0.80;99.90;;;;;;5053695;28;20103;-78
2022/03/21 04:34:37;;;;;;;10.07;4.82;;;0.70;99.90;;;;;;5071708;28;20039;-78
2022/03/21 04:37:03;;;;;;;10.93;6.20;;;0.70;99.90;;;;;;5071815;28;20464;-77
2022/03/21 04:39:29;;;;;;;14.18;5.85;;;0.60;99.90;;;;;;5053111;28;20496;-78
2022/03/21 04:41:54;;;;;;;13.07;5.78;;;0.80;99.90;;;;;;5065727;28;20766;-78
2022/03/21 04:44:20;;;;;;;11.85;5.28;;;0.70;99.90;;;;;;5050284;28;20274;-77
2022/03/21 04:46:46;;;;;;;13.02;4.93;;;0.70;99.90;;;;;;5050457;28;20485;-77
2022/03/21 04:49:11;;;;;;;12.50;6.60;;;0.70;99.90;;;;;;5032600;28;20082;-77
2022/03/21 04:51:37;;;;;;;11.25;4.93;;;0.70;99.90;;;;;;5058164;28;20325;-77
2022/03/21 04:54:03;;;;;;;15.15;6.10;;;0.60;99.90;;;;;;5053408;28;20032;-80
2022/03/21 04:56:28;;;;;;;17.13;6.00;;;0.60;99.90;;;;;;5071170;28;20476;-78
2022/03/21 04:58:54;;;;;;;10.43;5.10;;;0.60;99.90;;;;;;5070931;28;20032;-77
2022/03/21 05:01:20;;;;;;;13.60;5.05;;;0.50;99.90;;;;;;5071635;28;20033;-77
2022/03/21 05:03:46;;;;;;;14.63;5.47;;;0.60;99.90;;;;;;5071498;28;20024;-77
2022/03/21 05:06:12;;;;;;;13.25;5.30;;;0.50;99.90;;;;;;5070884;28;20117;-78
2022/03/21 05:08:38;;;;;;;13.07;6.20;;;0.50;99.90;;;;;;5053339;28;20019;-78
2022/03/21 05:11:03;;;;;;;13.25;5.82;;;0.50;99.90;;;;;;5071679;28;20059;-78
2022/03/21 05:13:29;;;;;;;11.13;5.65;;;0.50;99.90;;;;;;5071296;28;20120;-77
2022/03/21 05:15:55;;;;;;;10.27;4.90;;;0.60;99.90;;;;;;5052953;28;20058;-78
2022/03/21 05:18:22;;;;;;;13.52;5.60;;;0.50;99.90;;;;;;5070515;28;20021;-78
2022/03/21 05:20:48;;;;;;;15.13;6.15;;;0.50;99.90;;;;;;5070403;28;20090;-78
2022/03/21 05:31:26;;;;;;;14.00;4.38;;;0.30;99.90;;;;;;5050044;28;20055;-77
2022/03/21 05:36:36;;;;;;;9.63;4.53;;;0.20;99.90;;;;;;5051230;28;20126;-77
2022/03/21 05:39:03;;;;;;;12.88;4.97;;;0.20;99.90;;;;;;5051039;28;20075;-78
2022/03/21 05:41:29;;;;;;;13.25;5.30;;;0.20;99.90;;;;;;5055943;28;20017;-77
2022/03/21 05:43:56;;;;;;;13.88;5.32;;;0.20;99.90;;;;;;5052606;28;20036;-77
2022/03/21 05:46:22;;;;;;;10.00;4.63;;;0.20;99.90;;;;;;5049760;28;20036;-78
2022/03/21 05:48:50;;;;;;;13.70;5.35;;;0.20;99.90;;;;;;5033217;28;20032;-78
2022/03/21 05:51:18;;;;;;;16.20;5.82;;;0.30;99.90;;;;;;5060640;28;20123;-78
2022/03/21 05:53:46;;;;;;;12.80;5.65;;;0.40;99.90;;;;;;5071138;28;20094;-78
2022/03/21 05:56:13;;;;;;;11.63;5.43;;;0.60;99.90;;;;;;5051943;28;20150;-78
2022/03/21 05:58:39;;;;;;;12.68;5.47;;;0.70;99.90;;;;;;5052015;28;20302;-78
2022/03/21 06:01:05;;;;;;;16.35;5.47;;;0.90;99.90;;;;;;5070702;28;20628;-78
2022/03/21 06:03:31;;;;;;;12.18;5.80;;;1.10;99.90;;;;;;5070635;28;20196;-77
2022/03/21 06:05:59;;;;;;;15.15;5.93;;;1.10;99.90;;;;;;5054691;28;20480;-78
2022/03/21 06:08:26;;;;;;;12.88;6.75;;;1.10;99.90;;;;;;5068757;28;20480;-78
2022/03/21 06:11:03;;;;;;;17.13;8.82;;;1.10;99.90;;;;;;5070170;28;20070;-78
2022/03/21 06:13:33;;;;;;;16.98;7.45;;;1.30;99.90;;;;;;5069948;28;20086;-78
2022/03/21 06:16:03;;;;;;;18.08;6.70;;;1.40;99.90;;;;;;5069339;28;20023;-78
2022/03/21 06:18:39;;;;;;;14.07;7.07;;;1.70;99.90;;;;;;5068514;28;20107;-78
2022/03/21 06:21:07;;;;;;;13.13;6.35;;;1.90;99.90;;;;;;5069852;28;20384;-79
2022/03/21 06:23:33;;;;;;;19.15;6.90;;;2.10;99.90;;;;;;5051326;28;20104;-77
2022/03/21 06:25:59;;;;;;;14.80;6.97;;;2.40;99.90;;;;;;5051992;28;20067;-77
2022/03/21 06:28:26;;;;;;;14.63;6.32;;;2.70;99.90;;;;;;5069189;28;20075;-77
2022/03/21 06:30:54;;;;;;;10.23;6.82;;;2.90;99.90;;;;;;5076033;28;20025;-77
2022/03/21 06:33:26;;;;;;;12.85;5.80;;;3.00;99.90;;;;;;5063266;28;20064;-77
2022/03/21 06:35:53;;;;;;;10.13;5.80;;;3.20;99.90;;;;;;5080876;28;20308;-77
2022/03/21 06:38:19;;;;;;;12.55;6.57;;;3.50;99.90;;;;;;5076510;28;20039;-78
2022/03/21 06:40:47;;;;;;;12.57;5.25;;;3.60;99.90;;;;;;5085152;28;20035;-77
2022/03/21 06:43:15;;;;;;;11.10;5.07;;;3.60;99.90;;;;;;5084874;28;20021;-78
2022/03/21 06:45:42;;;;;;;11.85;6.28;;;3.50;99.90;;;;;;5060204;28;20426;-77
2022/03/21 06:48:07;;;;;;;17.52;6.97;;;3.60;99.90;;;;;;5053578;28;20063;-78
2022/03/21 06:50:33;;;;;;;11.73;6.53;;;3.70;99.90;;;;;;5054048;28;20059;-77
2022/03/21 06:52:59;;;;;;;15.55;7.80;;;3.90;99.90;;;;;;5071452;28;20485;-77
2022/03/21 06:55:26;;;;;;;13.13;6.60;;;3.90;99.90;;;;;;5053949;28;20033;-78
2022/03/21 06:57:51;;;;;;;13.45;6.35;;;4.00;99.90;;;;;;5055975;28;20355;-77
2022/03/21 07:00:22;;;;;;;12.65;5.97;;;4.00;99.90;;;;;;5073352;28;20091;-77
2022/03/21 07:02:47;;;;;;;15.70;6.88;;;4.10;99.90;;;;;;5054993;28;20040;-78
2022/03/21 07:05:13;;;;;;;13.93;5.85;;;4.20;99.90;;;;;;5074089;28;20082;-77
2022/03/21 07:07:39;;;;;;;11.52;6.18;;;4.30;99.90;;;;;;5072140;28;20240;-78
2022/03/21 07:10:05;;;;;;;9.77;5.90;;;4.60;99.90;;;;;;5071775;28;20031;-77
2022/03/21 07:12:34;;;;;;;16.13;7.10;;;6.50;99.90;;;;;;5070151;28;20045;-78
2022/03/21 07:15:03;;;;;;;10.05;6.38;;;5.20;99.90;;;;;;5053525;28;20121;-77
2022/03/21 07:17:30;;;;;;;10.55;5.45;;;5.40;99.90;;;;;;5070853;28;20029;-78
2022/03/21 07:19:55;;;;;;;14.82;6.28;;;5.60;99.90;;;;;;5071380;28;20045;-78
2022/03/21 07:22:21;;;;;;;14.20;5.43;;;5.80;99.90;;;;;;5053422;28;20481;-77
2022/03/21 07:24:47;;;;;;;11.70;5.95;;;6.10;99.90;;;;;;5067827;28;20105;-79
2022/03/21 07:27:13;;;;;;;13.80;7.15;;;6.20;99.90;;;;;;5067311;28;20020;-78
2022/03/21 07:29:39;;;;;;;15.80;8.18;;;6.20;99.90;;;;;;5053534;28;20028;-79
2022/03/21 07:32:05;;;;;;;13.73;7.18;;;6.10;99.90;;;;;;5049974;28;20033;-80
2022/03/21 07:34:30;;;;;;;18.13;6.75;;;6.00;99.90;;;;;;5049777;28;20072;-82
2022/03/21 07:37:06;;;;;;;14.90;8.07;;;6.10;99.90;;;;;;5069964;28;20028;-79
2022/03/21 07:39:34;;;;;;;11.40;7.60;;;6.20;99.90;;;;;;5056866;28;20035;-78
2022/03/21 07:42:02;;;;;;;15.10;6.82;;;6.30;99.90;;;;;;5068987;28;20021;-79
2022/03/21 07:47:22;;;;;;;13.82;5.93;;;6.70;99.90;;;;;;5028619;28;20033;-79
2022/03/21 07:49:50;;;;;;;11.73;6.65;;;7.00;99.90;;;;;;5035468;28;20612;-79
2022/03/21 07:52:19;;;;;;;10.65;5.40;;;7.20;99.90;;;;;;5061018;28;20194;-80
2022/03/21 07:54:53;;;;;;;16.27;6.13;;;7.30;99.90;;;;;;5069684;28;20196;-80
2022/03/21 07:57:21;;;;;;;11.15;5.43;;;7.30;99.90;;;;;;5064684;28;20009;-77
2022/03/21 07:59:46;;;;;;;22.88;5.13;;;7.50;99.90;;;;;;5063539;28;20396;-78
2022/03/21 08:02:12;;;;;;;16.02;6.05;;;7.60;99.90;;;;;;5057786;28;20081;-81
2022/03/21 08:04:38;;;;;;;11.52;5.93;;;7.80;99.90;;;;;;5063910;28;20074;-81
2022/03/21 08:07:04;;;;;;;10.43;5.07;;;8.00;99.90;;;;;;5064842;28;20035;-79
2022/03/21 08:09:29;;;;;;;10.75;5.30;;;8.10;99.90;;;;;;5029173;28;20595;-80
2022/03/21 08:11:57;;;;;;;8.88;5.00;;;8.20;99.90;;;;;;5061326;28;20045;-83
2022/03/21 08:14:23;;;;;;;12.95;6.03;;;8.20;99.90;;;;;;5062350;28;20035;-84
2022/03/21 08:16:50;;;;;;;13.07;5.30;;;8.40;99.90;;;;;;5043980;28;20051;-79
2022/03/21 08:19:16;;;;;;;10.73;6.15;;;8.60;99.90;;;;;;5062412;28;20027;-82
2022/03/21 08:21:43;;;;;;;8.35;5.60;;;8.90;99.90;;;;;;5042779;28;20362;-79
2022/03/21 08:24:12;;;;;;;10.45;5.03;;;9.30;99.90;;;;;;5061814;28;20017;-80
2022/03/21 08:26:38;;;;;;;9.63;5.75;;;9.30;99.90;;;;;;5030141;28;20647;-78
2022/03/21 08:29:03;;;;;;;11.82;5.47;;;9.30;99.90;;;;;;5049135;28;20100;-78
2022/03/21 08:31:29;;;;;;;13.48;6.13;;;9.30;99.90;;;;;;5030859;28;20040;-81
2022/03/21 08:33:55;;;;;;;11.43;6.20;;;9.30;99.90;;;;;;5030532;28;20036;-80
2022/03/21 08:36:21;;;;;;;11.23;6.10;;;9.40;99.90;;;;;;5031161;28;20070;-80
2022/03/21 08:38:47;;;;;;;12.65;5.68;;;9.50;99.90;;;;;;5049666;28;20029;-80
2022/03/21 08:41:13;;;;;;;14.70;5.80;;;9.70;99.90;;;;;;5031666;28;20021;-80
2022/03/21 08:43:39;;;;;;;10.80;5.78;;;9.90;99.90;;;;;;5030599;28;20029;-79
2022/03/21 08:46:08;;;;;;;19.25;7.35;;;10.10;99.90;;;;;;5036208;28;20477;-80
2022/03/21 08:51:19;;;;;;;10.95;6.40;;;10.50;95.90;;;;;;5061755;28;20723;-79
2022/03/21 08:53:48;;;;;;;11.10;6.82;;;10.80;92.30;;;;;;5071936;28;20590;-85
2022/03/21 08:56:14;;;;;;;16.60;7.03;;;10.70;92.90;;;;;;5072175;28;20040;-81
2022/03/21 08:58:40;;;;;;;13.80;7.55;;;10.70;91.50;;;;;;5070950;28;20121;-80
2022/03/21 09:01:05;;;;;;;14.43;8.02;;;10.80;88.70;;;;;;5070144;28;20028;-80
2022/03/21 09:03:31;;;;;;;14.52;7.75;;;11.00;85.00;;;;;;5067706;28;20140;-81
2022/03/21 09:05:57;;;;;;;19.95;7.00;;;10.80;80.00;;;;;;5072728;28;20027;-81
2022/03/21 09:08:22;;;;;;;17.05;8.18;;;10.80;78.80;;;;;;5070696;28;20020;-80
2022/03/21 09:10:48;;;;;;;15.52;8.18;;;10.80;78.80;;;;;;5068032;28;20035;-81
2022/03/21 09:13:15;;;;;;;16.67;7.35;;;10.80;78.50;;;;;;5067806;28;20122;-81
2022/03/21 09:15:42;;;;;;;17.60;7.63;;;10.90;78.30;;;;;;5070482;28;20017;-80
2022/03/21 09:18:08;;;;;;;14.93;8.48;;;10.70;78.30;;;;;;5074301;28;20289;-80
2022/03/21 09:20:33;;;;;;;15.68;7.53;;;10.90;78.20;;;;;;5047200;28;20028;-81
2022/03/21 09:22:59;;;;;;;14.40;6.80;;;11.00;78.10;;;;;;5047957;28;20032;-79
2022/03/21 09:25:26;;;;;;;14.27;6.97;;;11.20;78.40;;;;;;5048716;28;20544;-81
2022/03/21 09:27:52;;;;;;;20.33;8.52;;;11.30;76.90;;;;;;5053763;28;20470;-82
2022/03/21 09:30:21;;;;;;;22.48;8.60;;;11.50;77.80;;;;;;5047071;28;20036;-80
2022/03/21 09:32:46;;;;;;;17.92;6.78;;;11.60;74.40;;;;;;5046124;28;20087;-80
2022/03/21 09:35:13;;;;;;;17.35;7.60;;;11.50;74.50;;;;;;5055011;28;20029;-79
2022/03/21 09:37:39;;;;;;;14.02;7.32;;;11.50;73.30;;;;;;5058687;28;20204;-81
2022/03/21 09:40:06;;;;;;;13.40;7.15;;;10.90;72.50;;;;;;5048725;28;20527;-80
2022/03/21 09:42:49;;;;;;;13.63;7.03;;;11.70;73.00;;;;;;5048912;28;20092;-84
2022/03/21 09:45:15;;;;;;;10.88;6.70;;;11.80;72.90;;;;;;5060952;28;20036;-83
2022/03/21 09:50:33;;;;;;;16.40;6.53;;;12.00;71.30;;;;;;5047602;28;20051;-80
2022/03/21 09:53:00;;;;;;;14.90;6.05;;;12.20;70.50;;;;;;5077762;28;20442;-84
2022/03/21 09:55:26;;;;;;;10.70;5.93;;;12.20;70.70;;;;;;5072165;28;20027;-80
2022/03/21 09:57:52;;;;;;;13.60;6.25;;;12.50;71.10;;;;;;5093743;28;20020;-80
2022/03/21 10:00:18;;;;;;;14.98;6.95;;;12.50;70.30;;;;;;5071563;28;20476;-80
2022/03/21 10:02:46;;;;;;;9.30;6.05;;;12.50;69.70;;;;;;5060293;28;20016;-81
2022/03/21 10:05:43;;;;;;;10.40;5.80;;;12.60;69.10;;;;;;5090972;28;20032;-77
2022/03/21 10:08:09;;;;;;;11.73;6.22;;;12.60;69.80;;;;;;5071219;28;20042;-81
2022/03/21 10:10:35;;;;;;;16.40;6.00;;;12.60;68.20;;;;;;5086525;28;20522;-78
2022/03/21 10:13:02;;;;;;;12.38;5.43;;;12.70;68.80;;;;;;5085380;28;20012;-79
2022/03/21 10:15:29;;;;;;;12.25;6.68;;;12.80;70.10;;;;;;5072043;28;20140;-80
2022/03/21 10:18:24;;;;;;;13.93;5.57;;;12.50;67.90;;;;;;5051065;28;20028;-80
2022/03/21 10:20:52;;;;;;;11.65;6.03;;;12.90;69.00;;;;;;5012185;28;20069;-81
2022/03/21 10:23:20;;;;;;;10.90;5.38;;;12.90;66.90;;;;;;5012199;28;20021;-80
2022/03/21 10:25:47;;;;;;;10.93;5.32;;;12.60;66.20;;;;;;5028721;28;20033;-80
2022/03/21 10:28:32;;;;;;;10.55;4.90;;;13.20;67.60;;;;;;5011170;28;20441;-80
2022/03/21 10:30:59;;;;;;;9.63;6.10;;;13.20;66.40;;;;;;5027465;28;20367;-81
2022/03/21 10:33:25;;;;;;;12.00;5.03;;;13.30;65.70;;;;;;5027394;28;20432;-80
2022/03/21 10:35:51;;;;;;;10.75;5.05;;;13.40;65.90;;;;;;5028616;28;20040;-81
2022/03/21 10:38:36;;;;;;;8.93;4.97;;;13.40;66.80;;;;;;5011521;28;20037;-80
2022/03/21 10:41:07;;;;;;;9.70;5.68;;;13.60;67.30;;;;;;5030349;28;20084;-80
2022/03/21 10:43:33;;;;;;;9.30;5.40;;;13.60;67.70;;;;;;5030129;28;20042;-81
2022/03/21 10:45:58;;;;;;;8.80;4.80;;;13.90;68.30;;;;;;5012562;28;20033;-80
2022/03/21 10:48:32;;;;;;;9.73;4.47;;;14.00;66.80;;;;;;5029749;28;20473;-80
2022/03/21 10:51:00;;;;;;;8.82;4.18;;;13.90;63.60;;;;;;5030719;28;20449;-81
2022/03/21 10:53:36;;;;;;;7.10;4.18;;;14.00;65.30;;;;;;5048075;28;20037;-80
2022/03/21 10:56:12;;;;;;;8.50;4.63;;;14.10;65.40;;;;;;5048077;28;20025;-81
2022/03/21 10:58:47;;;;;;;7.78;3.65;;;14.10;64.00;;;;;;5031507;28;20233;-80
2022/03/21 11:01:17;;;;;;;6.60;4.40;;;14.20;65.40;;;;;;5049895;28;20602;-81
2022/03/21 11:03:49;;;;;;;8.57;5.60;;;14.30;64.60;;;;;;5048786;28;20169;-81
2022/03/21 11:06:15;;;;;;;8.35;4.32;;;14.30;63.20;;;;;;5048455;28;20161;-81
2022/03/21 11:08:41;;;;;;;7.40;4.88;;;14.40;64.00;;;;;;5050744;28;20021;-81
2022/03/21 11:11:10;;;;;;;9.85;4.93;;;14.30;63.40;;;;;;5048910;28;20032;-80
2022/03/21 11:13:39;;;;;;;10.93;4.57;;;14.40;64.50;;;;;;5047890;28;20515;-80
2022/03/21 11:16:06;;;;;;;10.48;5.63;;;14.30;63.00;;;;;;5049053;28;20020;-81
2022/03/21 11:18:32;;;;;;;10.13;5.57;;;14.30;64.30;;;;;;5049570;28;20595;-80
2022/03/21 11:21:00;;;;;;;9.98;6.25;;;14.50;64.10;;;;;;5049553;28;20025;-81
2022/03/21 11:23:26;;;;;;;9.63;6.07;;;14.50;62.50;;;;;;5047462;28;20025;-80
2022/03/21 11:25:55;;;;;;;14.10;5.88;;;16.20;63.00;;;;;;5048053;28;20397;-80
2022/03/21 11:28:56;;;;;;;12.07;6.00;;;14.90;62.10;;;;;;5050768;28;20035;-80
2022/03/21 11:31:32;;;;;;;12.65;5.95;;;14.90;61.90;;;;;;5068480;28;20509;-80
2022/03/21 11:34:25;;;;;;;8.63;5.45;;;14.70;61.60;;;;;;5051415;28;20119;-81
2022/03/21 11:36:56;;;;;;;14.20;5.93;;;14.80;61.70;;;;;;5057672;28;20029;-83
2022/03/21 11:39:23;;;;;;;10.13;4.65;;;14.90;61.50;;;;;;5061280;28;20063;-81
2022/03/21 11:42:10;;;;;;;10.50;6.53;;;15.10;62.10;;;;;;5076105;28;20028;-79
2022/03/21 11:44:38;;;;;;;8.68;4.72;;;15.20;61.20;;;;;;5094112;28;20021;-81
2022/03/21 11:47:22;;;;;;;15.02;5.45;;;15.00;60.40;;;;;;5090311;28;20479;-82
2022/03/21 11:49:48;;;;;;;10.98;5.40;;;15.10;60.90;;;;;;5072767;28;20066;-81
2022/03/21 11:52:15;;;;;;;9.50;4.72;;;15.30;60.90;;;;;;5085585;28;20140;-78
2022/03/21 11:54:42;;;;;;;7.47;4.15;;;15.20;60.40;;;;;;5066596;28;20025;-83
2022/03/21 11:57:17;;;;;;;12.00;5.63;;;15.30;60.00;;;;;;5063536;28;20024;-83
2022/03/21 12:00:01;;;;;;;15.73;6.60;;;15.20;59.80;;;;;;5077805;28;20109;-82
2022/03/21 12:02:27;;;;;;;14.60;6.88;;;15.10;60.20;;;;;;5080090;28;20454;-82
2022/03/21 12:04:57;;;;;;;10.50;5.70;;;15.20;59.90;;;;;;5056412;28;20496;-82
2022/03/21 12:07:25;;;;;;;10.07;5.28;;;15.30;59.20;;;;;;5058168;28;20051;-82
2022/03/21 12:09:53;;;;;;;13.98;5.30;;;15.80;58.70;;;;;;5059982;28;20033;-82
2022/03/21 12:12:20;;;;;;;8.38;4.97;;;16.80;58.10;;;;;;5060375;28;20175;-82
2022/03/21 12:14:47;;;;;;;8.98;4.95;;;17.50;56.50;;;;;;5059213;28;20055;-82
2022/03/21 12:17:12;;;;;;;13.43;6.47;;;17.70;55.70;;;;;;5074403;28;20084;-82
2022/03/21 12:20:02;;;;;;;15.55;6.53;;;18.00;54.00;;;;;;5057985;28;20501;-83
2022/03/21 12:22:37;;;;;;;15.00;6.07;;;17.50;54.60;;;;;;5068500;28;20558;-82
2022/03/21 12:25:24;;;;;;;10.90;5.60;;;18.00;53.50;;;;;;5049533;28;20469;-83
2022/03/21 12:27:55;;;;;;;11.65;6.28;;;18.30;53.40;;;;;;5049149;28;20029;-83
2022/03/21 12:30:21;;;;;;;11.55;5.95;;;18.20;53.20;;;;;;5066881;28;20028;-84
2022/03/21 12:32:46;;;;;;;9.70;6.15;;;18.60;53.60;;;;;;5048533;28;20043;-84
2022/03/21 12:35:32;;;;;;;10.30;5.40;;;18.70;52.10;;;;;;5049771;28;20021;-84
2022/03/21 12:38:01;;;;;;;11.13;5.68;;;18.70;52.20;;;;;;5047918;28;20330;-83
2022/03/21 12:40:27;;;;;;;11.23;6.70;;;18.70;52.30;;;;;;5048422;28;20573;-83
2022/03/21 12:42:54;;;;;;;15.70;6.55;;;18.40;52.30;;;;;;5065349;28;20111;-86
2022/03/21 12:45:21;;;;;;;16.60;6.25;;;18.70;52.60;;;;;;5071697;28;20402;-83
2022/03/21 12:47:50;;;;;;;12.77;5.50;;;18.60;53.30;;;;;;5065114;28;20027;-84
2022/03/21 12:50:24;;;;;;;12.80;7.38;;;18.90;51.80;;;;;;5067215;28;20063;-83
2022/03/21 12:52:55;;;;;;;11.98;6.10;;;18.60;51.60;;;;;;5062939;28;20073;-83
2022/03/21 12:55:22;;;;;;;9.70;5.82;;;18.70;51.30;;;;;;5060100;28;20032;-82
2022/03/21 12:58:05;;;;;;;11.88;6.43;;;18.60;51.10;;;;;;5056926;28;20028;-82
2022/03/21 13:00:35;;;;;;;10.60;5.90;;;18.30;51.30;;;;;;5055564;28;20033;-85
2022/03/21 13:03:08;;;;;;;13.27;5.78;;;18.40;51.60;;;;;;5063358;28;20029;-85
2022/03/21 13:11:28;;;;;;;13.05;5.50;;;19.40;48.20;;;;;;5047426;28;20024;-84
2022/03/21 13:13:57;;;;;;;14.18;6.32;;;20.40;48.60;;;;;;5046021;28;20104;-84
2022/03/21 13:16:25;;;;;;;13.65;7.05;;;20.10;47.70;;;;;;5047543;28;20025;-83
2022/03/21 13:18:52;;;;;;;10.95;6.28;;;19.40;47.80;;;;;;5043766;28;20017;-83